JBU421 KJFK-KBTV
Flight info
| Callsign | JBU421 |
|---|---|
| Flight time | 0h 47m |
| Altitude | 35000 |
| Route | GREKI JUDDS CAM GRNMT BTV |
| Aircraft | A320/M-SDE3FGHIRWY/LB1 |
Departure
| Time | 2026-05-09 11:32 |
|---|---|
| Airport | John F. Kennedy International Airport (KJFK) |
Arrival
| Time | 2026-05-09 12:20 |
|---|---|
| Airport | Patrick Leahy Burlington International Airport (KBTV) |
| Time | Latitude | Longitude | Altitude | Speed | Heading |
|---|---|---|---|---|---|
| 2026-05-09 11:11 | 40.64530 | -73.77290 | 21 ft | 0 kts | 1° |
| 2026-05-09 11:22 | 40.64524 | -73.77290 | 21 ft | 4 kts | 3° |
| 2026-05-09 11:23 | 40.64498 | -73.77296 | 21 ft | 4 kts | 25° |
| 2026-05-09 11:23 | 40.64478 | -73.77316 | 23 ft | 4 kts | 65° |
| 2026-05-09 11:23 | 40.64474 | -73.77334 | 23 ft | 0 kts | 89° |
| 2026-05-09 11:28 | 40.64474 | -73.77316 | 23 ft | 7 kts | 90° |
| 2026-05-09 11:28 | 40.64465 | -73.77213 | 21 ft | 11 kts | 116° |
| 2026-05-09 11:28 | 40.64430 | -73.77111 | 20 ft | 14 kts | 104° |
| 2026-05-09 11:28 | 40.64463 | -73.76995 | 20 ft | 16 kts | 16° |
| 2026-05-09 11:29 | 40.64574 | -73.76935 | 20 ft | 19 kts | 30° |
| 2026-05-09 11:29 | 40.64696 | -73.76840 | 20 ft | 23 kts | 31° |
| 2026-05-09 11:29 | 40.64839 | -73.76726 | 22 ft | 25 kts | 31° |
| 2026-05-09 11:29 | 40.64983 | -73.76610 | 21 ft | 18 kts | 31° |
| 2026-05-09 11:30 | 40.65064 | -73.76553 | 22 ft | 13 kts | 28° |
| 2026-05-09 11:30 | 40.65098 | -73.76472 | 22 ft | 7 kts | 108° |
| 2026-05-09 11:30 | 40.65093 | -73.76458 | 22 ft | 0 kts | 117° |
| 2026-05-09 11:31 | 40.65076 | -73.76417 | 23 ft | 9 kts | 119° |
| 2026-05-09 11:31 | 40.65019 | -73.76366 | 23 ft | 13 kts | 195° |
| 2026-05-09 11:31 | 40.64891 | -73.76458 | 22 ft | 47 kts | 210° |
| 2026-05-09 11:32 | 40.64376 | -73.76859 | 21 ft | 120 kts | 211° |
| 2026-05-09 11:32 | 40.63526 | -73.77508 | 229 ft | 152 kts | 208° |
| 2026-05-09 11:32 | 40.62609 | -73.78199 | 1011 ft | 154 kts | 208° |
| 2026-05-09 11:32 | 40.61665 | -73.78912 | 1604 ft | 165 kts | 212° |
| 2026-05-09 11:33 | 40.60603 | -73.79722 | 2033 ft | 189 kts | 213° |
| 2026-05-09 11:33 | 40.59391 | -73.80653 | 2563 ft | 215 kts | 213° |
| 2026-05-09 11:33 | 40.56599 | -73.82759 | 4428 ft | 241 kts | 206° |
| 2026-05-09 11:34 | 40.54898 | -73.83043 | 5503 ft | 258 kts | 177° |
| 2026-05-09 11:34 | 40.53196 | -73.82156 | 6640 ft | 273 kts | 150° |
| 2026-05-09 11:34 | 40.51916 | -73.80244 | 7707 ft | 289 kts | 124° |
| 2026-05-09 11:34 | 40.51347 | -73.77646 | 8698 ft | 307 kts | 97° |
| 2026-05-09 11:35 | 40.51652 | -73.74830 | 9659 ft | 319 kts | 71° |
| 2026-05-09 11:35 | 40.52793 | -73.72277 | 10346 ft | 335 kts | 51° |
| 2026-05-09 11:35 | 40.54350 | -73.69859 | 10715 ft | 359 kts | 47° |
| 2026-05-09 11:35 | 40.55980 | -73.67418 | 11247 ft | 372 kts | 47° |
| 2026-05-09 11:36 | 40.57700 | -73.64837 | 12017 ft | 378 kts | 47° |
| 2026-05-09 11:36 | 40.59424 | -73.62204 | 12872 ft | 382 kts | 47° |
| 2026-05-09 11:36 | 40.61178 | -73.59559 | 13722 ft | 385 kts | 41° |
| 2026-05-09 11:36 | 40.63321 | -73.57486 | 14444 ft | 381 kts | 22° |
| 2026-05-09 11:37 | 40.65802 | -73.56359 | 15157 ft | 377 kts | 6° |
| 2026-05-09 11:37 | 40.68369 | -73.55595 | 15881 ft | 380 kts | 6° |
| 2026-05-09 11:37 | 40.70965 | -73.54829 | 16594 ft | 384 kts | 5° |
| 2026-05-09 11:37 | 40.73585 | -73.54057 | 17312 ft | 388 kts | 5° |
| 2026-05-09 11:38 | 40.76233 | -73.53273 | 18037 ft | 393 kts | 5° |
| 2026-05-09 11:38 | 40.78918 | -73.52473 | 18684 ft | 397 kts | 5° |
| 2026-05-09 11:38 | 40.80887 | -73.51881 | 19192 ft | 401 kts | 5° |
| 2026-05-09 11:39 | 40.82115 | -73.51512 | 19477 ft | 403 kts | 5° |
| 2026-05-09 11:39 | 40.84863 | -73.50681 | 20144 ft | 407 kts | 4° |
| 2026-05-09 11:40 | 40.90429 | -73.48992 | 21467 ft | 414 kts | 4° |
| 2026-05-09 11:40 | 40.93250 | -73.48132 | 22125 ft | 417 kts | 4° |
| 2026-05-09 11:40 | 40.96087 | -73.47269 | 22770 ft | 420 kts | 4° |
| 2026-05-09 11:40 | 40.98948 | -73.46399 | 23402 ft | 424 kts | 3° |
| 2026-05-09 11:41 | 41.01839 | -73.45525 | 23952 ft | 427 kts | 3° |
| 2026-05-09 11:41 | 41.04747 | -73.44645 | 24462 ft | 430 kts | 3° |
| 2026-05-09 11:41 | 41.07675 | -73.43757 | 24971 ft | 433 kts | 3° |
| 2026-05-09 11:41 | 41.10618 | -73.42859 | 25478 ft | 436 kts | 3° |
| 2026-05-09 11:42 | 41.13576 | -73.41960 | 25977 ft | 438 kts | 3° |
| 2026-05-09 11:42 | 41.16556 | -73.41055 | 26467 ft | 440 kts | 3° |
| 2026-05-09 11:42 | 41.19549 | -73.40148 | 26983 ft | 443 kts | 3° |
| 2026-05-09 11:42 | 41.22562 | -73.39231 | 27467 ft | 445 kts | 3° |
| 2026-05-09 11:43 | 41.25585 | -73.38302 | 27955 ft | 447 kts | 3° |
| 2026-05-09 11:43 | 41.28626 | -73.37361 | 28426 ft | 450 kts | 3° |
| 2026-05-09 11:43 | 41.31679 | -73.36420 | 28890 ft | 452 kts | 3° |
| 2026-05-09 11:43 | 41.34753 | -73.35481 | 29338 ft | 454 kts | 3° |
| 2026-05-09 11:44 | 41.37835 | -73.34543 | 29775 ft | 457 kts | 3° |
| 2026-05-09 11:44 | 41.40909 | -73.33607 | 30214 ft | 459 kts | 2° |
| 2026-05-09 11:44 | 41.44065 | -73.32541 | 30573 ft | 469 kts | 8° |
| 2026-05-09 11:44 | 41.47121 | -73.30853 | 30935 ft | 484 kts | 18° |
| 2026-05-09 11:45 | 41.49058 | -73.29323 | 31194 ft | 494 kts | 25° |
| 2026-05-09 11:45 | 41.51753 | -73.26419 | 31710 ft | 503 kts | 36° |
| 2026-05-09 11:45 | 41.55038 | -73.22052 | 32423 ft | 501 kts | 37° |
| 2026-05-09 11:45 | 41.57543 | -73.18879 | 32949 ft | 492 kts | 30° |
| 2026-05-09 11:46 | 41.60297 | -73.16289 | 33468 ft | 476 kts | 20° |
| 2026-05-09 11:46 | 41.63218 | -73.14378 | 34012 ft | 460 kts | 10° |
| 2026-05-09 11:46 | 41.65238 | -73.13462 | 34326 ft | 450 kts | 4° |
| 2026-05-09 11:46 | 41.68267 | -73.12612 | 34733 ft | 438 kts | 356° |
| 2026-05-09 11:47 | 41.71278 | -73.12343 | 34974 ft | 430 kts | 348° |
| 2026-05-09 11:47 | 41.74217 | -73.12627 | 35050 ft | 419 kts | 342° |
| 2026-05-09 11:47 | 41.77107 | -73.13126 | 35073 ft | 419 kts | 342° |
| 2026-05-09 11:48 | 41.82860 | -73.14122 | 35039 ft | 417 kts | 342° |
| 2026-05-09 11:48 | 41.88625 | -73.15114 | 35032 ft | 416 kts | 342° |
| 2026-05-09 11:49 | 41.94337 | -73.16087 | 35026 ft | 417 kts | 342° |
| 2026-05-09 11:49 | 42.00093 | -73.17064 | 35069 ft | 417 kts | 341° |
| 2026-05-09 11:50 | 42.05844 | -73.18047 | 35053 ft | 416 kts | 341° |
| 2026-05-09 11:50 | 42.11586 | -73.19043 | 35042 ft | 416 kts | 341° |
| 2026-05-09 11:51 | 42.17316 | -73.20044 | 35039 ft | 416 kts | 341° |
| 2026-05-09 11:51 | 42.23048 | -73.21040 | 35036 ft | 415 kts | 341° |
| 2026-05-09 11:52 | 42.28774 | -73.22027 | 35026 ft | 415 kts | 341° |
| 2026-05-09 11:52 | 42.34506 | -73.23018 | 35021 ft | 415 kts | 341° |
| 2026-05-09 11:53 | 42.40229 | -73.24006 | 35048 ft | 414 kts | 341° |
| 2026-05-09 11:53 | 42.45918 | -73.24986 | 35008 ft | 410 kts | 341° |
| 2026-05-09 11:54 | 42.51581 | -73.25979 | 35006 ft | 410 kts | 341° |
| 2026-05-09 11:54 | 42.57239 | -73.26971 | 35017 ft | 410 kts | 341° |
| 2026-05-09 11:55 | 42.62904 | -73.27962 | 35043 ft | 411 kts | 341° |
| 2026-05-09 11:56 | 42.79828 | -73.30935 | 35052 ft | 410 kts | 340° |
| 2026-05-09 11:57 | 42.85492 | -73.31938 | 35015 ft | 411 kts | 340° |
| 2026-05-09 11:57 | 42.91168 | -73.32941 | 34990 ft | 412 kts | 340° |
| 2026-05-09 11:58 | 42.96852 | -73.33934 | 34987 ft | 415 kts | 342° |
| 2026-05-09 11:58 | 42.99798 | -73.33962 | 34983 ft | 433 kts | 353° |
| 2026-05-09 11:58 | 43.02820 | -73.33196 | 35000 ft | 450 kts | 2° |
| 2026-05-09 11:59 | 43.08884 | -73.30967 | 34982 ft | 452 kts | 2° |
| 2026-05-09 11:59 | 43.14961 | -73.28706 | 34966 ft | 452 kts | 2° |
| 2026-05-09 12:00 | 43.21040 | -73.26449 | 34987 ft | 453 kts | 2° |
| 2026-05-09 12:00 | 43.27126 | -73.24205 | 34996 ft | 453 kts | 2° |
| 2026-05-09 12:00 | 43.30165 | -73.23087 | 34784 ft | 451 kts | 2° |
| 2026-05-09 12:01 | 43.33188 | -73.21971 | 34136 ft | 450 kts | 1° |
| 2026-05-09 12:01 | 43.36213 | -73.20853 | 33422 ft | 449 kts | 1° |
| 2026-05-09 12:01 | 43.39225 | -73.19737 | 32605 ft | 451 kts | 1° |
| 2026-05-09 12:01 | 43.42277 | -73.18608 | 31639 ft | 455 kts | 2° |
| 2026-05-09 12:02 | 43.45346 | -73.17470 | 30653 ft | 460 kts | 2° |
| 2026-05-09 12:02 | 43.48452 | -73.16315 | 29731 ft | 462 kts | 2° |
| 2026-05-09 12:02 | 43.51545 | -73.15152 | 28947 ft | 459 kts | 3° |
| 2026-05-09 12:02 | 43.54613 | -73.13989 | 28217 ft | 455 kts | 4° |
| 2026-05-09 12:03 | 43.57646 | -73.12837 | 27507 ft | 450 kts | 4° |
| 2026-05-09 12:03 | 43.60658 | -73.11699 | 26818 ft | 446 kts | 4° |
| 2026-05-09 12:03 | 43.63594 | -73.10596 | 26167 ft | 442 kts | 5° |
| 2026-05-09 12:03 | 43.66557 | -73.09489 | 25515 ft | 438 kts | 5° |
| 2026-05-09 12:04 | 43.69482 | -73.08400 | 24856 ft | 434 kts | 5° |
| 2026-05-09 12:04 | 43.72391 | -73.07317 | 24239 ft | 431 kts | 6° |
| 2026-05-09 12:04 | 43.75270 | -73.06241 | 23672 ft | 427 kts | 6° |
| 2026-05-09 12:04 | 43.78123 | -73.05169 | 23019 ft | 424 kts | 6° |
| 2026-05-09 12:05 | 43.80963 | -73.04094 | 22417 ft | 421 kts | 6° |
| 2026-05-09 12:05 | 43.83772 | -73.03032 | 21850 ft | 417 kts | 6° |
| 2026-05-09 12:05 | 43.86564 | -73.01977 | 21307 ft | 413 kts | 6° |
| 2026-05-09 12:05 | 43.89326 | -73.00938 | 20782 ft | 410 kts | 6° |
| 2026-05-09 12:06 | 43.92068 | -72.99905 | 20296 ft | 407 kts | 6° |
| 2026-05-09 12:06 | 43.94789 | -72.98969 | 19792 ft | 396 kts | 1° |
| 2026-05-09 12:06 | 43.97482 | -72.98616 | 19267 ft | 382 kts | 351° |
| 2026-05-09 12:06 | 44.00086 | -72.98871 | 18737 ft | 369 kts | 342° |
| 2026-05-09 12:07 | 44.02539 | -72.99663 | 18202 ft | 357 kts | 333° |
| 2026-05-09 12:07 | 44.04861 | -73.00804 | 17571 ft | 352 kts | 331° |
| 2026-05-09 12:07 | 44.07154 | -73.01948 | 16924 ft | 349 kts | 332° |
| 2026-05-09 12:07 | 44.09425 | -73.03078 | 16262 ft | 346 kts | 332° |
| 2026-05-09 12:08 | 44.11685 | -73.04202 | 15636 ft | 344 kts | 332° |
| 2026-05-09 12:08 | 44.13924 | -73.05318 | 15026 ft | 341 kts | 332° |
| 2026-05-09 12:08 | 44.16154 | -73.06432 | 14428 ft | 339 kts | 332° |
| 2026-05-09 12:08 | 44.18363 | -73.07537 | 13820 ft | 336 kts | 332° |
| 2026-05-09 12:09 | 44.20558 | -73.08635 | 13174 ft | 335 kts | 333° |
| 2026-05-09 12:09 | 44.22746 | -73.09731 | 12585 ft | 333 kts | 334° |
| 2026-05-09 12:09 | 44.24922 | -73.10821 | 11963 ft | 331 kts | 334° |
| 2026-05-09 12:10 | 44.31398 | -73.14074 | 11000 ft | 331 kts | 336° |
| 2026-05-09 12:10 | 44.33571 | -73.15167 | 11006 ft | 332 kts | 336° |
| 2026-05-09 12:10 | 44.35744 | -73.16261 | 11000 ft | 332 kts | 335° |
| 2026-05-09 12:11 | 44.37806 | -73.17628 | 10756 ft | 326 kts | 324° |
| 2026-05-09 12:11 | 44.39565 | -73.19577 | 10492 ft | 317 kts | 311° |
| 2026-05-09 12:11 | 44.40910 | -73.21903 | 10343 ft | 300 kts | 300° |
| 2026-05-09 12:11 | 44.41867 | -73.24401 | 10217 ft | 285 kts | 294° |
| 2026-05-09 12:12 | 44.42726 | -73.26848 | 10022 ft | 276 kts | 294° |
| 2026-05-09 12:12 | 44.43564 | -73.29221 | 9865 ft | 270 kts | 294° |
| 2026-05-09 12:12 | 44.44400 | -73.31580 | 9740 ft | 271 kts | 295° |
| 2026-05-09 12:12 | 44.45238 | -73.33958 | 9323 ft | 276 kts | 294° |
| 2026-05-09 12:13 | 44.46074 | -73.36342 | 8943 ft | 274 kts | 294° |
| 2026-05-09 12:13 | 44.46912 | -73.38729 | 8555 ft | 273 kts | 294° |
| 2026-05-09 12:13 | 44.47749 | -73.41112 | 8126 ft | 273 kts | 294° |
| 2026-05-09 12:13 | 44.48653 | -73.43445 | 7713 ft | 275 kts | 304° |
| 2026-05-09 12:14 | 44.50109 | -73.45166 | 7366 ft | 279 kts | 331° |
| 2026-05-09 12:14 | 44.51995 | -73.45790 | 7003 ft | 283 kts | 360° |
| 2026-05-09 12:14 | 44.53907 | -73.45132 | 6468 ft | 291 kts | 27° |
| 2026-05-09 12:14 | 44.55554 | -73.43381 | 5650 ft | 304 kts | 41° |
| 2026-05-09 12:15 | 44.57179 | -73.41405 | 4821 ft | 311 kts | 42° |
| 2026-05-09 12:15 | 44.58763 | -73.39459 | 4448 ft | 290 kts | 44° |
| 2026-05-09 12:15 | 44.59816 | -73.37263 | 4292 ft | 260 kts | 77° |
| 2026-05-09 12:15 | 44.59795 | -73.34871 | 3952 ft | 240 kts | 114° |
| 2026-05-09 12:16 | 44.58942 | -73.32972 | 3622 ft | 224 kts | 133° |
| 2026-05-09 12:16 | 44.57884 | -73.31436 | 3280 ft | 214 kts | 138° |
| 2026-05-09 12:16 | 44.56831 | -73.30020 | 2959 ft | 205 kts | 138° |
| 2026-05-09 12:16 | 44.55840 | -73.28650 | 2653 ft | 193 kts | 137° |
| 2026-05-09 12:17 | 44.54957 | -73.27370 | 2410 ft | 175 kts | 137° |
| 2026-05-09 12:17 | 44.54154 | -73.26232 | 2186 ft | 151 kts | 139° |
| 2026-05-09 12:17 | 44.53477 | -73.25247 | 1994 ft | 131 kts | 137° |
| 2026-05-09 12:17 | 44.52881 | -73.24331 | 1808 ft | 124 kts | 136° |
| 2026-05-09 12:18 | 44.52312 | -73.23435 | 1644 ft | 123 kts | 134° |
| 2026-05-09 12:18 | 44.51749 | -73.22538 | 1482 ft | 122 kts | 136° |
| 2026-05-09 12:18 | 44.51195 | -73.21647 | 1306 ft | 121 kts | 134° |
| 2026-05-09 12:18 | 44.50636 | -73.20746 | 1127 ft | 123 kts | 133° |
| 2026-05-09 12:19 | 44.50071 | -73.19832 | 959 ft | 123 kts | 132° |
| 2026-05-09 12:19 | 44.49517 | -73.18937 | 795 ft | 124 kts | 131° |
| 2026-05-09 12:19 | 44.48947 | -73.18014 | 644 ft | 123 kts | 130° |
| 2026-05-09 12:19 | 44.48397 | -73.17106 | 456 ft | 124 kts | 131° |
| 2026-05-09 12:20 | 44.47838 | -73.16209 | 332 ft | 116 kts | 131° |
| 2026-05-09 12:20 | 44.47462 | -73.15593 | 333 ft | 46 kts | 130° |
| 2026-05-09 12:20 | 44.47349 | -73.15429 | 336 ft | 3 kts | 159° |
| 2026-05-09 12:20 | 44.47290 | -73.15408 | 333 ft | 12 kts | 174° |
| 2026-05-09 12:21 | 44.47185 | -73.15394 | 331 ft | 17 kts | 174° |
| 2026-05-09 12:21 | 44.47101 | -73.15376 | 334 ft | 9 kts | 166° |
| 2026-05-09 12:21 | 44.47029 | -73.15352 | 335 ft | 12 kts | 171° |
| 2026-05-09 12:21 | 44.46935 | -73.15334 | 338 ft | 15 kts | 172° |
| 2026-05-09 12:22 | 44.46823 | -73.15313 | 347 ft | 17 kts | 172° |
| 2026-05-09 12:22 | 44.46751 | -73.15308 | 349 ft | 10 kts | 188° |
| 2026-05-09 12:22 | 44.46736 | -73.15357 | 345 ft | 2 kts | 264° |
| 2026-05-09 12:22 | 44.46742 | -73.15383 | 353 ft | 4 kts | 327° |
| 2026-05-09 12:23 | 44.46772 | -73.15392 | 346 ft | 0 kts | 354° |